sensor_id;sensor_type;location;lat;lon;timestamp;temperature;humidity
7518;DHT22;3800;48.922;9.444;2023-01-24T00:01:02;2.40;99.90
7518;DHT22;3800;48.922;9.444;2023-01-24T00:03:30;2.40;99.90
7518;DHT22;3800;48.922;9.444;2023-01-24T00:05:58;2.40;99.90
7518;DHT22;3800;48.922;9.444;2023-01-24T00:08:26;2.40;99.90
7518;DHT22;3800;48.922;9.444;2023-01-24T00:10:59;2.50;99.90
7518;DHT22;3800;48.922;9.444;2023-01-24T00:13:26;2.40;99.90
7518;DHT22;3800;48.922;9.444;2023-01-24T00:16:01;2.40;99.90
7518;DHT22;3800;48.922;9.444;2023-01-24T00:18:28;2.40;99.90
7518;DHT22;3800;48.922;9.444;2023-01-24T00:21:02;2.40;99.90
7518;DHT22;3800;48.922;9.444;2023-01-24T00:23:28;2.40;99.90
7518;DHT22;3800;48.922;9.444;2023-01-24T00:25:57;2.40;99.90
7518;DHT22;3800;48.922;9.444;2023-01-24T00:28:26;2.40;99.90
7518;DHT22;3800;48.922;9.444;2023-01-24T00:30:54;2.40;99.90
7518;DHT22;3800;48.922;9.444;2023-01-24T00:33:21;2.40;99.90
7518;DHT22;3800;48.922;9.444;2023-01-24T00:35:49;2.40;99.90
7518;DHT22;3800;48.922;9.444;2023-01-24T00:38:17;2.40;99.90
7518;DHT22;3800;48.922;9.444;2023-01-24T00:40:44;2.40;99.90
7518;DHT22;3800;48.922;9.444;2023-01-24T00:43:12;2.40;99.90
7518;DHT22;3800;48.922;9.444;2023-01-24T00:45:39;2.40;99.90
7518;DHT22;3800;48.922;9.444;2023-01-24T00:48:08;2.30;99.90
7518;DHT22;3800;48.922;9.444;2023-01-24T00:50:35;2.40;99.90
7518;DHT22;3800;48.922;9.444;2023-01-24T00:53:02;2.30;99.90
7518;DHT22;3800;48.922;9.444;2023-01-24T00:55:30;2.40;99.90
7518;DHT22;3800;48.922;9.444;2023-01-24T00:57:58;2.40;99.90
7518;DHT22;3800;48.922;9.444;2023-01-24T01:00:26;2.40;99.90
7518;DHT22;3800;48.922;9.444;2023-01-24T01:02:53;2.30;99.90
7518;DHT22;3800;48.922;9.444;2023-01-24T01:05:21;2.30;99.90
7518;DHT22;3800;48.922;9.444;2023-01-24T01:07:49;2.40;99.90
7518;DHT22;3800;48.922;9.444;2023-01-24T01:10:17;2.30;99.90
7518;DHT22;3800;48.922;9.444;2023-01-24T01:12:44;2.30;99.90
7518;DHT22;3800;48.922;9.444;2023-01-24T01:15:12;2.30;99.90
7518;DHT22;3800;48.922;9.444;2023-01-24T01:17:39;2.30;99.90
7518;DHT22;3800;48.922;9.444;2023-01-24T01:20:07;2.30;99.90
7518;DHT22;3800;48.922;9.444;2023-01-24T01:22:35;2.30;99.90
7518;DHT22;3800;48.922;9.444;2023-01-24T01:25:03;2.30;99.90
7518;DHT22;3800;48.922;9.444;2023-01-24T01:27:30;2.30;99.90
7518;DHT22;3800;48.922;9.444;2023-01-24T01:29:58;2.30;99.90
7518;DHT22;3800;48.922;9.444;2023-01-24T01:32:26;2.30;99.90
7518;DHT22;3800;48.922;9.444;2023-01-24T01:34:53;2.30;99.90
7518;DHT22;3800;48.922;9.444;2023-01-24T01:37:21;2.30;99.90
7518;DHT22;3800;48.922;9.444;2023-01-24T01:39:48;2.30;99.90
7518;DHT22;3800;48.922;9.444;2023-01-24T01:42:16;2.30;99.90
7518;DHT22;3800;48.922;9.444;2023-01-24T01:44:46;2.30;99.90
7518;DHT22;3800;48.922;9.444;2023-01-24T01:47:19;2.30;99.90
7518;DHT22;3800;48.922;9.444;2023-01-24T01:50:05;2.30;99.90
7518;DHT22;3800;48.922;9.444;2023-01-24T01:52:33;2.30;99.90
7518;DHT22;3800;48.922;9.444;2023-01-24T01:55:02;2.30;99.90
7518;DHT22;3800;48.922;9.444;2023-01-24T01:57:29;2.30;99.90
7518;DHT22;3800;48.922;9.444;2023-01-24T02:00:15;2.30;99.90
7518;DHT22;3800;48.922;9.444;2023-01-24T02:02:43;2.30;99.90
7518;DHT22;3800;48.922;9.444;2023-01-24T02:05:10;2.30;99.90
7518;DHT22;3800;48.922;9.444;2023-01-24T02:07:44;2.30;99.90
7518;DHT22;3800;48.922;9.444;2023-01-24T02:10:11;2.30;99.90
7518;DHT22;3800;48.922;9.444;2023-01-24T02:12:40;2.30;99.90
7518;DHT22;3800;48.922;9.444;2023-01-24T02:15:10;2.30;99.90
7518;DHT22;3800;48.922;9.444;2023-01-24T02:17:40;2.30;99.90
7518;DHT22;3800;48.922;9.444;2023-01-24T02:20:17;2.30;99.90
7518;DHT22;3800;48.922;9.444;2023-01-24T02:25:37;2.40;99.90
7518;DHT22;3800;48.922;9.444;2023-01-24T02:28:03;2.40;99.90
7518;DHT22;3800;48.922;9.444;2023-01-24T02:30:32;2.40;99.90
7518;DHT22;3800;48.922;9.444;2023-01-24T02:33:07;2.30;99.90
7518;DHT22;3800;48.922;9.444;2023-01-24T02:35:28;2.30;99.90
7518;DHT22;3800;48.922;9.444;2023-01-24T02:37:55;2.30;99.90
7518;DHT22;3800;48.922;9.444;2023-01-24T02:40:22;2.30;99.90
7518;DHT22;3800;48.922;9.444;2023-01-24T02:42:50;2.30;99.90
7518;DHT22;3800;48.922;9.444;2023-01-24T02:45:23;2.30;99.90
7518;DHT22;3800;48.922;9.444;2023-01-24T02:47:51;2.30;99.90
7518;DHT22;3800;48.922;9.444;2023-01-24T02:50:19;2.30;99.90
7518;DHT22;3800;48.922;9.444;2023-01-24T02:52:47;2.30;99.90
7518;DHT22;3800;48.922;9.444;2023-01-24T02:55:20;2.30;99.90
7518;DHT22;3800;48.922;9.444;2023-01-24T02:57:48;2.30;99.90
7518;DHT22;3800;48.922;9.444;2023-01-24T03:00:21;2.30;99.90
7518;DHT22;3800;48.922;9.444;2023-01-24T03:02:49;2.30;99.90
7518;DHT22;3800;48.922;9.444;2023-01-24T03:05:17;2.30;99.90
7518;DHT22;3800;48.922;9.444;2023-01-24T03:07:44;2.30;99.90
7518;DHT22;3800;48.922;9.444;2023-01-24T03:10:13;2.30;99.90
7518;DHT22;3800;48.922;9.444;2023-01-24T03:12:40;2.30;99.90
7518;DHT22;3800;48.922;9.444;2023-01-24T03:15:12;2.30;99.90
7518;DHT22;3800;48.922;9.444;2023-01-24T03:17:46;2.30;99.90
7518;DHT22;3800;48.922;9.444;2023-01-24T03:20:19;2.30;99.90
7518;DHT22;3800;48.922;9.444;2023-01-24T03:22:52;2.30;99.90
7518;DHT22;3800;48.922;9.444;2023-01-24T03:25:25;2.30;99.90
7518;DHT22;3800;48.922;9.444;2023-01-24T03:28:03;2.30;99.90
7518;DHT22;3800;48.922;9.444;2023-01-24T03:30:37;2.30;99.90
7518;DHT22;3800;48.922;9.444;2023-01-24T03:33:10;2.30;99.90
7518;DHT22;3800;48.922;9.444;2023-01-24T03:35:43;2.30;99.90
7518;DHT22;3800;48.922;9.444;2023-01-24T03:38:10;2.30;99.90
7518;DHT22;3800;48.922;9.444;2023-01-24T03:40:44;2.20;99.90
7518;DHT22;3800;48.922;9.444;2023-01-24T03:43:11;2.30;99.90
7518;DHT22;3800;48.922;9.444;2023-01-24T03:45:40;2.30;99.90
7518;DHT22;3800;48.922;9.444;2023-01-24T03:48:08;2.20;99.90
7518;DHT22;3800;48.922;9.444;2023-01-24T03:50:37;2.30;99.90
7518;DHT22;3800;48.922;9.444;2023-01-24T03:53:10;2.30;99.90
7518;DHT22;3800;48.922;9.444;2023-01-24T03:55:37;2.30;99.90
7518;DHT22;3800;48.922;9.444;2023-01-24T03:58:06;2.30;99.90
7518;DHT22;3800;48.922;9.444;2023-01-24T04:00:33;2.30;99.90
7518;DHT22;3800;48.922;9.444;2023-01-24T04:03:01;2.30;99.90
7518;DHT22;3800;48.922;9.444;2023-01-24T04:05:28;2.30;99.90
7518;DHT22;3800;48.922;9.444;2023-01-24T04:07:56;2.30;99.90
7518;DHT22;3800;48.922;9.444;2023-01-24T04:10:24;2.30;99.90
7518;DHT22;3800;48.922;9.444;2023-01-24T04:12:51;2.30;99.90
7518;DHT22;3800;48.922;9.444;2023-01-24T04:15:21;2.20;99.90
7518;DHT22;3800;48.922;9.444;2023-01-24T04:17:47;2.30;99.90
7518;DHT22;3800;48.922;9.444;2023-01-24T04:20:16;2.30;99.90
7518;DHT22;3800;48.922;9.444;2023-01-24T04:22:43;2.20;99.90
7518;DHT22;3800;48.922;9.444;2023-01-24T04:25:11;2.20;99.90
7518;DHT22;3800;48.922;9.444;2023-01-24T04:27:39;2.20;99.90
7518;DHT22;3800;48.922;9.444;2023-01-24T04:30:08;2.20;99.90
7518;DHT22;3800;48.922;9.444;2023-01-24T04:32:36;2.20;99.90
7518;DHT22;3800;48.922;9.444;2023-01-24T04:35:04;2.20;99.90
7518;DHT22;3800;48.922;9.444;2023-01-24T04:37:31;2.20;99.90
7518;DHT22;3800;48.922;9.444;2023-01-24T04:39:59;2.20;99.90
7518;DHT22;3800;48.922;9.444;2023-01-24T04:42:27;2.20;99.90
7518;DHT22;3800;48.922;9.444;2023-01-24T04:44:55;2.20;99.90
7518;DHT22;3800;48.922;9.444;2023-01-24T04:47:23;2.20;99.90
7518;DHT22;3800;48.922;9.444;2023-01-24T04:49:51;2.20;99.90
7518;DHT22;3800;48.922;9.444;2023-01-24T04:52:19;2.20;99.90
7518;DHT22;3800;48.922;9.444;2023-01-24T04:54:46;2.20;99.90
7518;DHT22;3800;48.922;9.444;2023-01-24T04:57:14;2.20;99.90
7518;DHT22;3800;48.922;9.444;2023-01-24T04:59:42;2.20;99.90
7518;DHT22;3800;48.922;9.444;2023-01-24T05:02:09;2.20;99.90
7518;DHT22;3800;48.922;9.444;2023-01-24T05:04:37;2.20;99.90
7518;DHT22;3800;48.922;9.444;2023-01-24T05:07:04;2.20;99.90
7518;DHT22;3800;48.922;9.444;2023-01-24T05:09:32;2.20;99.90
7518;DHT22;3800;48.922;9.444;2023-01-24T05:12:00;2.20;99.90
7518;DHT22;3800;48.922;9.444;2023-01-24T05:14:27;2.20;99.90
7518;DHT22;3800;48.922;9.444;2023-01-24T05:16:55;2.20;99.90
7518;DHT22;3800;48.922;9.444;2023-01-24T05:19:23;2.20;99.90
7518;DHT22;3800;48.922;9.444;2023-01-24T05:21:51;2.20;99.90
7518;DHT22;3800;48.922;9.444;2023-01-24T05:24:19;2.10;99.90
7518;DHT22;3800;48.922;9.444;2023-01-24T05:26:46;2.10;99.90
7518;DHT22;3800;48.922;9.444;2023-01-24T05:29:14;2.10;99.90
7518;DHT22;3800;48.922;9.444;2023-01-24T05:31:42;2.10;99.90
7518;DHT22;3800;48.922;9.444;2023-01-24T05:34:10;2.10;99.90
7518;DHT22;3800;48.922;9.444;2023-01-24T05:36:38;2.10;99.90
7518;DHT22;3800;48.922;9.444;2023-01-24T05:39:05;2.10;99.90
7518;DHT22;3800;48.922;9.444;2023-01-24T05:41:33;2.20;99.90
7518;DHT22;3800;48.922;9.444;2023-01-24T05:44:01;2.20;99.90
7518;DHT22;3800;48.922;9.444;2023-01-24T05:46:29;2.10;99.90
7518;DHT22;3800;48.922;9.444;2023-01-24T05:48:57;2.20;99.90
7518;DHT22;3800;48.922;9.444;2023-01-24T05:51:24;2.20;99.90
7518;DHT22;3800;48.922;9.444;2023-01-24T05:53:52;2.20;99.90
7518;DHT22;3800;48.922;9.444;2023-01-24T05:56:20;2.20;99.90
7518;DHT22;3800;48.922;9.444;2023-01-24T05:58:47;2.20;99.90
7518;DHT22;3800;48.922;9.444;2023-01-24T06:01:17;2.20;99.90
7518;DHT22;3800;48.922;9.444;2023-01-24T06:03:45;2.20;99.90
7518;DHT22;3800;48.922;9.444;2023-01-24T06:06:13;2.20;99.90
7518;DHT22;3800;48.922;9.444;2023-01-24T06:08:40;2.20;99.90
7518;DHT22;3800;48.922;9.444;2023-01-24T06:11:12;2.20;99.90
7518;DHT22;3800;48.922;9.444;2023-01-24T06:13:39;2.20;99.90
7518;DHT22;3800;48.922;9.444;2023-01-24T06:16:08;2.20;99.90
7518;DHT22;3800;48.922;9.444;2023-01-24T06:18:34;2.20;99.90
7518;DHT22;3800;48.922;9.444;2023-01-24T06:21:06;2.20;99.90
7518;DHT22;3800;48.922;9.444;2023-01-24T06:23:33;2.20;99.90
7518;DHT22;3800;48.922;9.444;2023-01-24T06:26:01;2.20;99.90
7518;DHT22;3800;48.922;9.444;2023-01-24T06:28:29;2.20;99.90
7518;DHT22;3800;48.922;9.444;2023-01-24T06:31:04;2.20;99.90
7518;DHT22;3800;48.922;9.444;2023-01-24T06:36:26;2.20;99.90
7518;DHT22;3800;48.922;9.444;2023-01-24T06:38:49;2.20;99.90
7518;DHT22;3800;48.922;9.444;2023-01-24T06:41:17;2.20;99.90
7518;DHT22;3800;48.922;9.444;2023-01-24T06:43:45;2.20;99.90
7518;DHT22;3800;48.922;9.444;2023-01-24T06:46:13;2.20;99.90
7518;DHT22;3800;48.922;9.444;2023-01-24T06:48:42;2.20;99.90
7518;DHT22;3800;48.922;9.444;2023-01-24T06:51:10;2.20;99.90
7518;DHT22;3800;48.922;9.444;2023-01-24T06:53:37;2.20;99.90
7518;DHT22;3800;48.922;9.444;2023-01-24T06:56:05;2.20;99.90
7518;DHT22;3800;48.922;9.444;2023-01-24T06:58:33;2.20;99.90
7518;DHT22;3800;48.922;9.444;2023-01-24T07:01:01;2.20;99.90
7518;DHT22;3800;48.922;9.444;2023-01-24T07:03:31;2.20;99.90
7518;DHT22;3800;48.922;9.444;2023-01-24T07:05:59;2.20;99.90
7518;DHT22;3800;48.922;9.444;2023-01-24T07:08:26;2.20;99.90
7518;DHT22;3800;48.922;9.444;2023-01-24T07:10:56;2.20;99.90
7518;DHT22;3800;48.922;9.444;2023-01-24T07:13:22;2.20;99.90
7518;DHT22;3800;48.922;9.444;2023-01-24T07:15:49;2.20;99.90
7518;DHT22;3800;48.922;9.444;2023-01-24T07:18:18;2.20;99.90
7518;DHT22;3800;48.922;9.444;2023-01-24T07:20:46;2.20;99.90
7518;DHT22;3800;48.922;9.444;2023-01-24T07:23:22;2.20;99.90
7518;DHT22;3800;48.922;9.444;2023-01-24T07:25:50;2.20;99.90
7518;DHT22;3800;48.922;9.444;2023-01-24T07:28:19;2.30;99.90
7518;DHT22;3800;48.922;9.444;2023-01-24T07:30:47;2.30;99.90
7518;DHT22;3800;48.922;9.444;2023-01-24T07:33:15;2.30;99.90
7518;DHT22;3800;48.922;9.444;2023-01-24T07:35:43;2.30;99.90
7518;DHT22;3800;48.922;9.444;2023-01-24T07:38:10;2.30;99.90
7518;DHT22;3800;48.922;9.444;2023-01-24T07:40:39;2.30;99.90
7518;DHT22;3800;48.922;9.444;2023-01-24T07:43:08;2.30;99.90
7518;DHT22;3800;48.922;9.444;2023-01-24T07:45:35;2.30;99.90
7518;DHT22;3800;48.922;9.444;2023-01-24T07:48:05;2.40;99.90
7518;DHT22;3800;48.922;9.444;2023-01-24T07:50:33;2.40;99.90
7518;DHT22;3800;48.922;9.444;2023-01-24T07:53:00;2.40;99.90
7518;DHT22;3800;48.922;9.444;2023-01-24T07:55:27;2.40;99.90
7518;DHT22;3800;48.922;9.444;2023-01-24T07:57:58;2.40;99.90
7518;DHT22;3800;48.922;9.444;2023-01-24T08:00:25;2.40;99.90
7518;DHT22;3800;48.922;9.444;2023-01-24T08:02:52;2.40;99.90
7518;DHT22;3800;48.922;9.444;2023-01-24T08:05:22;2.40;99.90
7518;DHT22;3800;48.922;9.444;2023-01-24T08:07:49;2.40;99.90
7518;DHT22;3800;48.922;9.444;2023-01-24T08:10:17;2.50;99.90
7518;DHT22;3800;48.922;9.444;2023-01-24T08:12:45;2.50;99.90
7518;DHT22;3800;48.922;9.444;2023-01-24T08:15:12;2.50;99.90
7518;DHT22;3800;48.922;9.444;2023-01-24T08:17:40;2.50;99.90
7518;DHT22;3800;48.922;9.444;2023-01-24T08:20:09;2.50;99.90
7518;DHT22;3800;48.922;9.444;2023-01-24T08:22:39;2.50;99.90
7518;DHT22;3800;48.922;9.444;2023-01-24T08:25:06;2.50;99.90
7518;DHT22;3800;48.922;9.444;2023-01-24T08:27:34;2.60;99.90
7518;DHT22;3800;48.922;9.444;2023-01-24T08:30:02;2.60;99.90
7518;DHT22;3800;48.922;9.444;2023-01-24T08:32:32;2.60;99.90
7518;DHT22;3800;48.922;9.444;2023-01-24T08:34:59;2.60;99.90
7518;DHT22;3800;48.922;9.444;2023-01-24T08:37:28;2.60;99.90
7518;DHT22;3800;48.922;9.444;2023-01-24T08:39:58;2.60;99.90
7518;DHT22;3800;48.922;9.444;2023-01-24T08:42:26;2.60;99.90
7518;DHT22;3800;48.922;9.444;2023-01-24T08:44:54;2.50;99.90
7518;DHT22;3800;48.922;9.444;2023-01-24T08:47:23;2.50;99.90
7518;DHT22;3800;48.922;9.444;2023-01-24T08:49:51;2.50;99.90
7518;DHT22;3800;48.922;9.444;2023-01-24T08:52:19;2.50;99.90
7518;DHT22;3800;48.922;9.444;2023-01-24T08:54:47;2.60;99.90
7518;DHT22;3800;48.922;9.444;2023-01-24T08:57:14;2.60;99.90
7518;DHT22;3800;48.922;9.444;2023-01-24T08:59:42;2.60;99.90
7518;DHT22;3800;48.922;9.444;2023-01-24T09:02:11;2.60;99.90
7518;DHT22;3800;48.922;9.444;2023-01-24T09:04:38;2.70;99.90
7518;DHT22;3800;48.922;9.444;2023-01-24T09:07:06;2.70;99.90
7518;DHT22;3800;48.922;9.444;2023-01-24T09:09:34;2.70;99.90
7518;DHT22;3800;48.922;9.444;2023-01-24T09:12:02;2.70;99.90
7518;DHT22;3800;48.922;9.444;2023-01-24T09:14:30;2.70;99.90
7518;DHT22;3800;48.922;9.444;2023-01-24T09:16:58;2.70;99.90
7518;DHT22;3800;48.922;9.444;2023-01-24T09:19:25;2.70;99.90
7518;DHT22;3800;48.922;9.444;2023-01-24T09:21:53;2.70;99.90
7518;DHT22;3800;48.922;9.444;2023-01-24T09:24:21;2.70;99.90
7518;DHT22;3800;48.922;9.444;2023-01-24T09:26:48;2.70;99.90
7518;DHT22;3800;48.922;9.444;2023-01-24T09:29:17;2.80;99.90
7518;DHT22;3800;48.922;9.444;2023-01-24T09:31:47;2.80;99.90
7518;DHT22;3800;48.922;9.444;2023-01-24T09:34:15;2.90;99.90
7518;DHT22;3800;48.922;9.444;2023-01-24T09:36:43;2.90;99.90
7518;DHT22;3800;48.922;9.444;2023-01-24T09:39:11;2.90;99.90
7518;DHT22;3800;48.922;9.444;2023-01-24T09:41:55;3.00;99.90
7518;DHT22;3800;48.922;9.444;2023-01-24T09:44:22;3.00;99.90
7518;DHT22;3800;48.922;9.444;2023-01-24T09:46:46;3.00;99.90
7518;DHT22;3800;48.922;9.444;2023-01-24T09:49:17;3.00;99.90
7518;DHT22;3800;48.922;9.444;2023-01-24T09:51:46;3.00;99.90
7518;DHT22;3800;48.922;9.444;2023-01-24T09:54:15;3.10;99.90
7518;DHT22;3800;48.922;9.444;2023-01-24T09:56:42;3.10;99.90
7518;DHT22;3800;48.922;9.444;2023-01-24T10:01:56;3.20;99.90
7518;DHT22;3800;48.922;9.444;2023-01-24T10:04:32;3.20;99.90
7518;DHT22;3800;48.922;9.444;2023-01-24T10:10:06;3.20;99.90
7518;DHT22;3800;48.922;9.444;2023-01-24T10:12:54;3.20;99.90
7518;DHT22;3800;48.922;9.444;2023-01-24T10:15:30;3.20;99.90
7518;DHT22;3800;48.922;9.444;2023-01-24T10:18:36;3.20;99.90
7518;DHT22;3800;48.922;9.444;2023-01-24T10:21:59;3.20;99.90
7518;DHT22;3800;48.922;9.444;2023-01-24T10:23:34;3.20;99.90
7518;DHT22;3800;48.922;9.444;2023-01-24T10:26:05;3.20;99.90
7518;DHT22;3800;48.922;9.444;2023-01-24T10:28:35;3.20;99.90
7518;DHT22;3800;48.922;9.444;2023-01-24T10:31:05;3.20;99.90
7518;DHT22;3800;48.922;9.444;2023-01-24T10:33:33;3.20;99.90
7518;DHT22;3800;48.922;9.444;2023-01-24T10:36:03;3.30;99.90
7518;DHT22;3800;48.922;9.444;2023-01-24T10:38:28;3.30;99.90
7518;DHT22;3800;48.922;9.444;2023-01-24T10:40:58;3.30;99.90
7518;DHT22;3800;48.922;9.444;2023-01-24T10:43:26;3.30;99.90
7518;DHT22;3800;48.922;9.444;2023-01-24T10:48:44;3.30;99.90
7518;DHT22;3800;48.922;9.444;2023-01-24T10:51:12;3.30;99.90
7518;DHT22;3800;48.922;9.444;2023-01-24T10:53:38;3.30;99.90
7518;DHT22;3800;48.922;9.444;2023-01-24T10:56:07;3.30;99.90
7518;DHT22;3800;48.922;9.444;2023-01-24T10:58:37;3.30;99.90
7518;DHT22;3800;48.922;9.444;2023-01-24T11:01:07;3.30;99.90
7518;DHT22;3800;48.922;9.444;2023-01-24T11:03:38;3.30;99.90
7518;DHT22;3800;48.922;9.444;2023-01-24T11:06:02;3.30;99.90
7518;DHT22;3800;48.922;9.444;2023-01-24T11:08:33;3.30;99.90
7518;DHT22;3800;48.922;9.444;2023-01-24T11:11:00;3.30;99.90
7518;DHT22;3800;48.922;9.444;2023-01-24T11:13:35;3.40;99.90
7518;DHT22;3800;48.922;9.444;2023-01-24T11:16:05;3.40;99.90
7518;DHT22;3800;48.922;9.444;2023-01-24T11:18:33;3.40;99.90
7518;DHT22;3800;48.922;9.444;2023-01-24T11:21:12;3.40;99.90
7518;DHT22;3800;48.922;9.444;2023-01-24T11:23:40;3.50;99.90
7518;DHT22;3800;48.922;9.444;2023-01-24T11:28:40;3.50;99.90
7518;DHT22;3800;48.922;9.444;2023-01-24T11:31:15;3.50;99.90
7518;DHT22;3800;48.922;9.444;2023-01-24T11:34:02;3.50;99.90
7518;DHT22;3800;48.922;9.444;2023-01-24T11:36:49;3.50;99.90
7518;DHT22;3800;48.922;9.444;2023-01-24T11:42:00;3.60;99.90
7518;DHT22;3800;48.922;9.444;2023-01-24T11:45:36;3.60;99.90
7518;DHT22;3800;48.922;9.444;2023-01-24T11:47:15;3.60;99.90
7518;DHT22;3800;48.922;9.444;2023-01-24T11:49:54;3.60;99.90
7518;DHT22;3800;48.922;9.444;2023-01-24T11:52:40;3.60;99.90
7518;DHT22;3800;48.922;9.444;2023-01-24T11:55:10;3.60;99.90
7518;DHT22;3800;48.922;9.444;2023-01-24T11:57:36;3.70;99.90
7518;DHT22;3800;48.922;9.444;2023-01-24T12:00:09;3.70;99.90
7518;DHT22;3800;48.922;9.444;2023-01-24T12:02:54;3.70;99.90
7518;DHT22;3800;48.922;9.444;2023-01-24T12:05:18;3.70;99.90
7518;DHT22;3800;48.922;9.444;2023-01-24T12:07:56;3.70;99.90
7518;DHT22;3800;48.922;9.444;2023-01-24T12:10:44;3.70;99.90
7518;DHT22;3800;48.922;9.444;2023-01-24T12:16:19;3.80;99.90
7518;DHT22;3800;48.922;9.444;2023-01-24T12:19:08;3.80;99.90
7518;DHT22;3800;48.922;9.444;2023-01-24T12:21:32;3.80;99.90
7518;DHT22;3800;48.922;9.444;2023-01-24T12:24:01;3.70;99.90
7518;DHT22;3800;48.922;9.444;2023-01-24T12:26:40;3.70;99.90
7518;DHT22;3800;48.922;9.444;2023-01-24T12:29:12;3.70;99.90
7518;DHT22;3800;48.922;9.444;2023-01-24T12:31:42;3.70;99.90
7518;DHT22;3800;48.922;9.444;2023-01-24T12:34:22;3.60;99.90
7518;DHT22;3800;48.922;9.444;2023-01-24T12:36:48;3.70;99.90
7518;DHT22;3800;48.922;9.444;2023-01-24T12:39:18;3.60;99.90
7518;DHT22;3800;48.922;9.444;2023-01-24T12:41:43;3.60;99.90
7518;DHT22;3800;48.922;9.444;2023-01-24T12:44:18;3.70;99.90
7518;DHT22;3800;48.922;9.444;2023-01-24T12:46:44;3.70;99.90
7518;DHT22;3800;48.922;9.444;2023-01-24T12:49:20;3.60;99.90
7518;DHT22;3800;48.922;9.444;2023-01-24T12:51:47;3.70;99.90
7518;DHT22;3800;48.922;9.444;2023-01-24T12:54:16;3.70;99.90
7518;DHT22;3800;48.922;9.444;2023-01-24T12:57:02;3.70;99.90
7518;DHT22;3800;48.922;9.444;2023-01-24T12:59:28;3.70;99.90
7518;DHT22;3800;48.922;9.444;2023-01-24T13:02:00;3.70;99.90
7518;DHT22;3800;48.922;9.444;2023-01-24T13:04:41;3.60;99.90
7518;DHT22;3800;48.922;9.444;2023-01-24T13:07:14;3.60;99.90
7518;DHT22;3800;48.922;9.444;2023-01-24T13:09:56;3.60;99.90
7518;DHT22;3800;48.922;9.444;2023-01-24T13:12:23;3.60;99.90
7518;DHT22;3800;48.922;9.444;2023-01-24T13:14:52;3.60;99.90
7518;DHT22;3800;48.922;9.444;2023-01-24T13:17:22;3.60;99.90
7518;DHT22;3800;48.922;9.444;2023-01-24T13:20:11;3.50;99.90
7518;DHT22;3800;48.922;9.444;2023-01-24T13:22:45;3.50;99.90
7518;DHT22;3800;48.922;9.444;2023-01-24T13:25:37;3.50;99.90
7518;DHT22;3800;48.922;9.444;2023-01-24T13:28:06;3.50;99.90
7518;DHT22;3800;48.922;9.444;2023-01-24T13:30:36;3.50;99.90
7518;DHT22;3800;48.922;9.444;2023-01-24T13:33:02;3.50;99.90
7518;DHT22;3800;48.922;9.444;2023-01-24T13:35:29;3.50;99.90
7518;DHT22;3800;48.922;9.444;2023-01-24T13:38:03;3.50;99.90
7518;DHT22;3800;48.922;9.444;2023-01-24T13:40:30;3.50;99.90
7518;DHT22;3800;48.922;9.444;2023-01-24T13:42:57;3.50;99.90
7518;DHT22;3800;48.922;9.444;2023-01-24T13:45:45;3.50;99.90
7518;DHT22;3800;48.922;9.444;2023-01-24T13:51:21;3.40;99.90
7518;DHT22;3800;48.922;9.444;2023-01-24T13:53:25;3.50;99.90
7518;DHT22;3800;48.922;9.444;2023-01-24T13:55:59;3.50;99.90
7518;DHT22;3800;48.922;9.444;2023-01-24T13:58:18;3.50;99.90
7518;DHT22;3800;48.922;9.444;2023-01-24T14:00:48;3.50;99.90
7518;DHT22;3800;48.922;9.444;2023-01-24T14:03:17;3.50;99.90
7518;DHT22;3800;48.922;9.444;2023-01-24T14:05:48;3.40;99.90
7518;DHT22;3800;48.922;9.444;2023-01-24T14:08:31;3.40;99.90
7518;DHT22;3800;48.922;9.444;2023-01-24T14:10:50;3.40;99.90
7518;DHT22;3800;48.922;9.444;2023-01-24T14:15:56;3.40;99.90
7518;DHT22;3800;48.922;9.444;2023-01-24T14:21:03;3.30;99.90
7518;DHT22;3800;48.922;9.444;2023-01-24T14:23:31;3.30;99.90
7518;DHT22;3800;48.922;9.444;2023-01-24T14:25:59;3.30;99.90
7518;DHT22;3800;48.922;9.444;2023-01-24T14:28:32;3.30;99.90
7518;DHT22;3800;48.922;9.444;2023-01-24T14:31:02;3.30;99.90
7518;DHT22;3800;48.922;9.444;2023-01-24T14:33:29;3.20;99.90
7518;DHT22;3800;48.922;9.444;2023-01-24T14:36:03;3.20;99.90
7518;DHT22;3800;48.922;9.444;2023-01-24T14:38:28;3.20;99.90
7518;DHT22;3800;48.922;9.444;2023-01-24T14:40:56;3.20;99.90
7518;DHT22;3800;48.922;9.444;2023-01-24T14:43:32;3.20;99.90
7518;DHT22;3800;48.922;9.444;2023-01-24T14:45:51;3.10;99.90
7518;DHT22;3800;48.922;9.444;2023-01-24T14:48:23;3.10;99.90
7518;DHT22;3800;48.922;9.444;2023-01-24T14:50:58;3.10;99.90
7518;DHT22;3800;48.922;9.444;2023-01-24T14:53:28;3.00;99.90
7518;DHT22;3800;48.922;9.444;2023-01-24T14:55:56;3.00;99.90
7518;DHT22;3800;48.922;9.444;2023-01-24T14:58:24;3.00;99.90
7518;DHT22;3800;48.922;9.444;2023-01-24T15:00:52;3.10;99.90
7518;DHT22;3800;48.922;9.444;2023-01-24T15:03:21;3.00;99.90
7518;DHT22;3800;48.922;9.444;2023-01-24T15:05:49;3.00;99.90
7518;DHT22;3800;48.922;9.444;2023-01-24T15:08:16;3.00;99.90
7518;DHT22;3800;48.922;9.444;2023-01-24T15:10:46;2.90;99.90
7518;DHT22;3800;48.922;9.444;2023-01-24T15:13:22;2.90;99.90
7518;DHT22;3800;48.922;9.444;2023-01-24T15:15:47;2.80;99.90
7518;DHT22;3800;48.922;9.444;2023-01-24T15:18:26;2.80;99.90
7518;DHT22;3800;48.922;9.444;2023-01-24T15:20:51;2.80;99.90
7518;DHT22;3800;48.922;9.444;2023-01-24T15:23:20;2.90;99.90
7518;DHT22;3800;48.922;9.444;2023-01-24T15:25:46;2.80;99.90
7518;DHT22;3800;48.922;9.444;2023-01-24T15:28:20;2.80;99.90
7518;DHT22;3800;48.922;9.444;2023-01-24T15:30:51;2.80;99.90
7518;DHT22;3800;48.922;9.444;2023-01-24T15:33:18;2.80;99.90
7518;DHT22;3800;48.922;9.444;2023-01-24T15:35:46;2.80;99.90
7518;DHT22;3800;48.922;9.444;2023-01-24T15:38:17;2.80;99.90
7518;DHT22;3800;48.922;9.444;2023-01-24T15:40:49;2.80;99.90
7518;DHT22;3800;48.922;9.444;2023-01-24T15:43:18;2.80;99.90
7518;DHT22;3800;48.922;9.444;2023-01-24T15:45:51;2.80;99.90
7518;DHT22;3800;48.922;9.444;2023-01-24T15:48:20;2.80;99.90
7518;DHT22;3800;48.922;9.444;2023-01-24T15:50:51;2.80;99.90
7518;DHT22;3800;48.922;9.444;2023-01-24T15:53:26;2.70;99.90
7518;DHT22;3800;48.922;9.444;2023-01-24T15:55:55;2.70;99.90
7518;DHT22;3800;48.922;9.444;2023-01-24T15:58:22;2.70;99.90
7518;DHT22;3800;48.922;9.444;2023-01-24T16:00:53;2.70;99.90
7518;DHT22;3800;48.922;9.444;2023-01-24T16:03:21;2.70;99.90
7518;DHT22;3800;48.922;9.444;2023-01-24T16:05:49;2.70;99.90
7518;DHT22;3800;48.922;9.444;2023-01-24T16:08:17;2.70;99.90
7518;DHT22;3800;48.922;9.444;2023-01-24T16:10:45;2.70;99.90
7518;DHT22;3800;48.922;9.444;2023-01-24T16:13:21;2.60;99.90
7518;DHT22;3800;48.922;9.444;2023-01-24T16:15:48;2.60;99.90
7518;DHT22;3800;48.922;9.444;2023-01-24T16:18:16;2.60;99.90
7518;DHT22;3800;48.922;9.444;2023-01-24T16:20:43;2.60;99.90
7518;DHT22;3800;48.922;9.444;2023-01-24T16:23:12;2.60;99.90
7518;DHT22;3800;48.922;9.444;2023-01-24T16:25:40;2.60;99.90
7518;DHT22;3800;48.922;9.444;2023-01-24T16:28:17;2.60;99.90
7518;DHT22;3800;48.922;9.444;2023-01-24T16:30:43;2.50;99.90
7518;DHT22;3800;48.922;9.444;2023-01-24T16:33:12;2.60;99.90
7518;DHT22;3800;48.922;9.444;2023-01-24T16:35:40;2.60;99.90
7518;DHT22;3800;48.922;9.444;2023-01-24T16:38:10;2.60;99.90
7518;DHT22;3800;48.922;9.444;2023-01-24T16:40:39;2.60;99.90
7518;DHT22;3800;48.922;9.444;2023-01-24T16:43:07;2.60;99.90
7518;DHT22;3800;48.922;9.444;2023-01-24T16:45:35;2.50;99.90
7518;DHT22;3800;48.922;9.444;2023-01-24T16:48:04;2.50;99.90
7518;DHT22;3800;48.922;9.444;2023-01-24T16:50:32;2.50;99.90
7518;DHT22;3800;48.922;9.444;2023-01-24T16:53:00;2.60;99.90
7518;DHT22;3800;48.922;9.444;2023-01-24T16:55:29;2.50;99.90
7518;DHT22;3800;48.922;9.444;2023-01-24T16:57:58;2.60;99.90
7518;DHT22;3800;48.922;9.444;2023-01-24T17:00:26;2.60;99.90
7518;DHT22;3800;48.922;9.444;2023-01-24T17:02:54;2.60;99.90